Time;durP1;ratioP1;P1;durP2;ratioP2;P2;SDS_P1;SDS_P2;PMS_P1;PMS_P2;Temp;Humidity;BMP_temperature;BMP_pressure;BME280_temperature;BME280_humidity;BME280_pressure;Samples;Min_cycle;Max_cycle;Signal;HPM_P1;HPM_P2
2022/07/20 00:00:31;;;;;;;3.93;3.00;;;29.50;28.40;;;31.86;23.35;101450.19;5096803;28;20279;-57
2022/07/20 00:03:03;;;;;;;3.63;2.80;;;29.50;28.50;;;31.84;23.32;101449.69;5096960;28;20211;-57
2022/07/20 00:05:32;;;;;;;3.57;3.23;;;29.50;28.60;;;31.84;24.12;101443.44;5097134;28;20189;-58
2022/07/20 00:08:00;;;;;;;4.10;3.10;;;29.50;28.60;;;31.81;23.66;101453.00;5097006;28;20195;-56
2022/07/20 00:13:15;;;;;;;4.47;3.00;;;29.50;28.60;;;31.71;23.73;101450.47;5096755;28;20537;-59
2022/07/20 00:15:43;;;;;;;3.30;3.03;;;29.40;28.50;;;31.69;23.50;101443.72;5097930;28;20224;-59
2022/07/20 00:18:11;;;;;;;3.83;3.27;;;29.40;28.50;;;31.67;23.51;101452.16;5097137;28;20249;-59
2022/07/20 00:20:40;;;;;;;3.83;3.00;;;29.40;28.60;;;31.67;23.63;101435.00;5096435;28;20200;-59
2022/07/20 00:23:08;;;;;;;3.30;2.70;;;29.40;28.60;;;31.67;23.98;101443.16;5096804;28;20205;-59
2022/07/20 00:25:35;;;;;;;4.10;2.90;;;29.40;28.70;;;31.65;23.53;101443.47;5096729;28;20302;-59
2022/07/20 00:28:03;;;;;;;4.03;3.07;;;29.40;28.60;;;31.65;24.28;101438.03;5096235;28;20196;-59
2022/07/20 00:30:30;;;;;;;5.10;3.13;;;29.40;28.70;;;31.64;24.11;101444.56;5097102;28;20196;-56
2022/07/20 00:32:58;;;;;;;3.90;3.43;;;29.30;28.80;;;31.64;24.13;101447.28;5096516;28;20624;-58
2022/07/20 00:35:25;;;;;;;5.07;2.77;;;29.30;28.80;;;31.65;24.36;101439.94;5096499;28;20210;-58
2022/07/20 00:37:54;;;;;;;4.00;3.27;;;29.30;28.80;;;31.65;24.35;101446.19;5096540;28;20195;-58
2022/07/20 00:40:21;;;;;;;3.37;3.10;;;29.30;28.90;;;31.62;23.82;101435.91;5096239;28;20184;-61
2022/07/20 00:42:49;;;;;;;3.80;3.50;;;29.30;28.90;;;31.58;24.37;101434.06;5096302;28;20208;-59
2022/07/20 00:45:16;;;;;;;5.87;2.97;;;29.30;28.90;;;31.54;23.83;101435.78;5096524;28;20250;-58
2022/07/20 00:47:43;;;;;;;4.70;2.90;;;29.20;28.80;;;31.49;24.18;101439.41;5097541;28;20196;-59
2022/07/20 00:50:11;;;;;;;3.47;3.17;;;29.20;29.00;;;31.44;24.54;101434.84;5096332;28;20188;-59
2022/07/20 00:52:39;;;;;;;4.50;3.50;;;29.20;29.00;;;31.41;24.05;101427.22;5095879;28;20273;-58
2022/07/20 00:55:09;;;;;;;4.13;3.30;;;29.10;29.10;;;31.38;24.14;101438.69;5096559;28;20668;-58
2022/07/20 00:57:36;;;;;;;3.60;3.30;;;29.10;29.20;;;31.36;24.23;101429.22;5096069;28;20289;-59
2022/07/20 01:00:07;;;;;;;3.80;3.40;;;29.10;29.30;;;31.34;24.91;101432.25;5095926;28;20189;-59
2022/07/20 01:02:35;;;;;;;3.33;3.00;;;29.10;29.30;;;31.30;24.25;101431.22;5096934;28;20231;-59
2022/07/20 01:05:04;;;;;;;3.43;3.13;;;29.00;29.20;;;31.30;24.69;101430.41;5095547;28;20184;-59
2022/07/20 01:07:31;;;;;;;4.57;3.10;;;29.00;29.30;;;31.23;24.01;101429.97;5096151;28;20556;-59
2022/07/20 01:09:59;;;;;;;3.43;3.13;;;28.90;29.20;;;31.20;24.46;101425.13;5096193;28;20195;-59
2022/07/20 01:12:28;;;;;;;3.17;2.97;;;28.90;29.80;;;31.16;24.20;101429.53;5095461;28;20212;-59
2022/07/20 01:14:56;;;;;;;6.20;3.33;;;28.90;29.30;;;31.15;24.95;101419.75;5095788;28;20216;-59
2022/07/20 01:17:23;;;;;;;3.93;3.50;;;28.90;29.40;;;31.13;25.00;101416.50;5095893;28;20635;-59
2022/07/20 01:19:50;;;;;;;4.87;3.40;;;28.80;29.50;;;31.10;25.10;101425.25;5097120;28;20653;-56
2022/07/20 01:22:19;;;;;;;5.73;3.63;;;28.80;29.50;;;31.03;25.04;101419.38;5095191;28;20216;-58
2022/07/20 01:24:47;;;;;;;4.17;3.27;;;28.80;29.60;;;30.99;25.16;101419.16;5095734;28;20189;-57
2022/07/20 01:27:14;;;;;;;4.50;3.07;;;28.70;29.60;;;30.94;24.39;101411.06;5095649;28;20184;-57
2022/07/20 01:29:41;;;;;;;6.87;3.40;;;28.70;30.10;;;30.95;25.28;101411.91;5095413;28;20200;-59
2022/07/20 01:32:09;;;;;;;4.17;3.57;;;28.70;29.80;;;30.94;24.61;101410.25;5095196;28;20219;-59
2022/07/20 01:34:36;;;;;;;4.87;3.23;;;28.70;29.80;;;30.92;24.67;101412.47;5095282;28;20219;-59
2022/07/20 01:37:03;;;;;;;3.83;3.27;;;28.60;29.80;;;30.88;25.11;101414.91;5095680;28;20197;-57
2022/07/20 01:39:32;;;;;;;5.73;3.17;;;28.60;30.40;;;30.87;25.30;101409.78;5094447;28;20656;-58
2022/07/20 01:42:00;;;;;;;3.20;2.90;;;28.60;29.90;;;30.85;25.43;101404.66;5094164;28;20212;-59
2022/07/20 01:44:27;;;;;;;5.03;2.80;;;28.50;29.90;;;30.85;24.91;101412.00;5094781;28;20193;-56
2022/07/20 01:46:54;;;;;;;3.57;3.07;;;28.50;30.00;;;30.83;25.09;101412.31;5095030;28;20196;-59
2022/07/20 01:49:22;;;;;;;3.47;2.87;;;28.50;30.00;;;30.79;24.90;101408.53;5095443;28;20196;-58
2022/07/20 01:51:51;;;;;;;4.63;2.97;;;28.50;30.00;;;30.75;25.55;101402.06;5095864;28;20208;-60
2022/07/20 01:54:19;;;;;;;4.07;3.27;;;28.40;30.00;;;30.75;25.01;101411.03;5095091;28;20705;-58
2022/07/20 01:56:47;;;;;;;4.00;3.40;;;28.40;30.10;;;30.71;25.16;101406.47;5094988;28;20240;-59
2022/07/20 01:59:15;;;;;;;3.30;2.80;;;28.40;30.10;;;30.69;25.57;101404.03;5095307;28;20184;-57
2022/07/20 02:01:42;;;;;;;4.47;3.30;;;28.30;30.80;;;30.70;25.08;101405.66;5094646;28;20216;-59
2022/07/20 02:04:10;;;;;;;4.60;3.23;;;28.30;30.20;;;30.66;25.39;101410.06;5094980;28;20196;-59
2022/07/20 02:06:37;;;;;;;4.83;3.03;;;28.30;30.30;;;30.62;25.68;101409.03;5095169;28;20204;-58
2022/07/20 02:09:04;;;;;;;3.60;3.30;;;28.30;30.30;;;30.59;25.50;101406.09;5099856;28;20643;-56
2022/07/20 02:11:32;;;;;;;6.27;3.30;;;28.30;30.40;;;30.56;25.64;101404.75;5116925;28;20578;-57
2022/07/20 02:14:00;;;;;;;4.17;3.10;;;28.20;30.40;;;30.55;25.56;101403.13;5115231;28;20195;-59
2022/07/20 02:16:28;;;;;;;5.97;3.17;;;28.20;30.40;;;30.53;25.91;101410.78;5114233;28;20548;-59
2022/07/20 02:18:55;;;;;;;4.50;3.50;;;28.20;30.50;;;30.52;25.91;101403.72;5115246;28;20544;-58
2022/07/20 02:21:24;;;;;;;3.63;3.07;;;28.10;30.60;;;30.48;25.68;101397.25;5114430;28;20549;-59
2022/07/20 02:23:52;;;;;;;3.70;3.20;;;28.10;30.60;;;30.47;25.54;101394.81;5115259;28;20202;-57
2022/07/20 02:26:20;;;;;;;3.60;3.00;;;28.10;30.80;;;30.46;26.19;101398.63;5113061;28;20203;-59
2022/07/20 02:28:47;;;;;;;5.47;3.10;;;28.00;30.90;;;30.40;25.74;101395.19;5114662;28;20210;-59
2022/07/20 02:31:21;;;;;;;3.70;3.40;;;28.10;31.00;;;30.36;25.82;101388.69;5114225;28;20212;-59
2022/07/20 02:33:50;;;;;;;3.53;3.27;;;28.00;31.00;;;30.29;25.81;101388.19;5114573;28;20691;-59
2022/07/20 02:36:18;;;;;;;4.53;3.30;;;28.00;31.10;;;30.27;25.73;101393.13;5114648;28;20207;-59
2022/07/20 02:38:45;;;;;;;5.03;3.10;;;27.90;31.10;;;30.26;26.14;101393.41;5114611;28;20199;-59
2022/07/20 02:41:14;;;;;;;3.70;3.40;;;27.90;31.30;;;30.26;26.06;101386.09;5113926;28;20231;-60
2022/07/20 02:43:41;;;;;;;5.23;3.33;;;27.90;31.20;;;30.24;25.99;101388.25;5112466;28;20203;-57
2022/07/20 02:46:09;;;;;;;5.17;3.43;;;27.90;31.40;;;30.20;26.34;101379.06;5114576;28;20533;-56
2022/07/20 02:48:39;;;;;;;4.50;3.17;;;27.80;31.40;;;30.17;26.46;101382.34;5113680;28;20199;-58
2022/07/20 02:51:06;;;;;;;5.33;2.87;;;27.80;31.60;;;30.11;26.54;101384.34;5114158;28;20184;-58
2022/07/20 02:53:33;;;;;;;3.80;3.50;;;27.80;32.00;;;30.07;26.48;101379.78;5114622;28;20197;-57
2022/07/20 02:56:01;;;;;;;5.10;3.77;;;27.70;31.60;;;30.06;26.76;101378.16;5129895;27;20219;-57
2022/07/20 02:58:28;;;;;;;3.80;3.40;;;27.70;31.80;;;30.01;26.55;101376.31;5112365;28;20542;-59
2022/07/20 03:00:57;;;;;;;5.93;3.27;;;27.60;31.80;;;30.00;26.76;101376.59;5113890;28;20187;-58
2022/07/20 03:03:25;;;;;;;4.00;2.90;;;27.60;31.90;;;29.98;26.21;101373.34;5113959;28;20192;-59
2022/07/20 03:05:53;;;;;;;4.60;3.30;;;27.60;31.90;;;29.96;26.37;101372.81;5113960;28;20353;-59
2022/07/20 03:08:21;;;;;;;4.30;3.40;;;27.60;32.00;;;29.93;26.79;101368.78;5114018;28;20195;-59
2022/07/20 03:10:48;;;;;;;3.27;2.97;;;27.60;32.20;;;29.92;26.56;101377.22;5113557;28;20188;-62
2022/07/20 03:13:15;;;;;;;4.30;2.80;;;27.50;32.10;;;29.89;26.76;101375.06;5113820;28;20187;-60
2022/07/20 03:15:43;;;;;;;3.53;3.23;;;27.50;32.10;;;29.90;26.64;101376.69;5112046;28;20215;-56
2022/07/20 03:18:10;;;;;;;5.13;3.30;;;27.50;32.20;;;29.88;26.51;101381.63;5113925;28;20675;-56
2022/07/20 03:20:37;;;;;;;6.27;3.43;;;27.50;32.40;;;29.85;27.22;101379.47;5113737;28;20187;-59
2022/07/20 03:23:06;;;;;;;6.00;3.50;;;27.40;32.40;;;29.84;26.86;101381.38;5113600;28;20216;-58
2022/07/20 03:25:34;;;;;;;5.03;3.10;;;27.40;32.30;;;29.80;26.88;101384.94;5114060;28;20194;-59
2022/07/20 03:28:02;;;;;;;4.07;3.67;;;27.40;32.40;;;29.77;26.88;101396.38;5113326;28;20192;-59
2022/07/20 03:30:30;;;;;;;5.37;3.90;;;27.30;32.30;;;29.72;27.07;101399.91;5111802;28;20663;-59
2022/07/20 03:32:58;;;;;;;3.93;3.27;;;27.30;32.40;;;29.68;27.15;101403.47;5094704;28;20672;-57
2022/07/20 03:35:25;;;;;;;15.03;3.47;;;27.30;32.60;;;29.61;27.24;101400.28;5093260;28;20669;-59
2022/07/20 03:37:53;;;;;;;4.23;3.60;;;27.30;32.80;;;29.59;27.08;101397.88;5093705;28;20195;-60
2022/07/20 03:40:21;;;;;;;3.67;3.27;;;27.20;33.00;;;29.62;27.23;101404.63;5093637;28;20563;-59
2022/07/20 03:42:49;;;;;;;6.77;3.57;;;27.20;32.90;;;29.61;27.48;101401.09;5093082;28;20688;-59
2022/07/20 03:45:16;;;;;;;5.17;3.40;;;27.20;33.40;;;29.55;27.61;101404.16;5093285;28;20211;-59
2022/07/20 03:47:52;;;;;;;4.30;3.43;;;27.10;33.60;;;29.50;28.04;101405.00;5094480;28;20261;-59
2022/07/20 03:50:20;;;;;;;4.37;3.80;;;27.10;33.50;;;29.44;28.09;101393.38;5092620;28;20663;-59
2022/07/20 03:52:47;;;;;;;5.20;3.33;;;27.10;33.80;;;29.42;27.73;101401.00;5092523;28;20305;-59
2022/07/20 03:55:15;;;;;;;5.00;3.40;;;27.10;33.70;;;29.41;27.85;101404.78;5092575;28;20276;-58
2022/07/20 03:57:44;;;;;;;3.13;2.80;;;27.00;33.80;;;29.41;28.10;101402.06;5093041;28;20185;-59
2022/07/20 04:00:13;;;;;;;6.07;3.80;;;27.00;33.90;;;29.36;27.81;101402.09;5093140;28;20193;-59
2022/07/20 04:02:41;;;;;;;4.07;3.60;;;26.90;34.00;;;29.30;28.22;101397.81;5092315;28;20208;-57
2022/07/20 04:05:08;;;;;;;4.40;3.67;;;26.90;34.00;;;29.25;28.21;101395.16;5094258;28;20223;-58
2022/07/20 04:07:36;;;;;;;8.60;4.27;;;26.90;34.10;;;29.23;28.20;101396.53;5093014;28;20188;-57
2022/07/20 04:10:04;;;;;;;8.13;3.67;;;26.90;34.20;;;29.21;28.13;101404.97;5092579;28;20199;-59
2022/07/20 04:12:31;;;;;;;5.20;3.67;;;26.80;34.40;;;29.19;28.57;101404.41;5091785;28;20213;-59
2022/07/20 04:15:00;;;;;;;4.90;3.83;;;26.80;34.50;;;29.16;28.74;101402.25;5092559;28;20195;-59
2022/07/20 04:17:28;;;;;;;4.20;3.73;;;26.70;35.60;;;29.09;29.03;101401.75;5092771;28;20212;-56
2022/07/20 04:19:55;;;;;;;5.17;3.33;;;26.70;35.20;;;29.04;28.92;101409.91;5093856;28;20189;-59
2022/07/20 04:22:23;;;;;;;4.40;3.70;;;26.70;35.20;;;28.99;29.12;101407.22;5107887;28;20204;-59
2022/07/20 04:24:50;;;;;;;7.13;3.60;;;26.60;35.50;;;28.98;29.14;101411.03;5092235;28;20192;-57
2022/07/20 04:27:18;;;;;;;6.23;4.33;;;26.60;35.50;;;28.95;29.35;101400.75;5092429;28;20694;-57
2022/07/20 04:29:45;;;;;;;4.17;3.67;;;26.60;35.60;;;28.93;29.08;101402.13;5092475;28;20199;-58
2022/07/20 04:32:14;;;;;;;5.40;3.97;;;26.50;35.80;;;28.89;29.33;101401.84;5092449;28;20208;-58
2022/07/20 04:34:41;;;;;;;4.10;3.80;;;26.50;35.90;;;28.87;29.24;101398.63;5092645;28;20190;-58
2022/07/20 04:37:12;;;;;;;4.30;3.90;;;26.50;35.80;;;28.87;29.47;101398.63;5093529;28;20201;-58
2022/07/20 04:39:39;;;;;;;5.33;4.13;;;26.50;36.10;;;28.86;29.56;101390.78;5094563;28;20195;-59
2022/07/20 04:42:07;;;;;;;8.87;3.60;;;26.50;36.10;;;28.88;29.60;101397.53;5095703;28;20219;-58
2022/07/20 04:44:34;;;;;;;4.30;3.90;;;26.40;36.20;;;28.88;29.50;101400.25;5095907;28;20192;-59
2022/07/20 04:47:01;;;;;;;14.37;4.13;;;26.40;36.20;;;28.88;29.38;101400.25;5096246;28;20596;-58
2022/07/20 04:49:30;;;;;;;4.23;3.67;;;26.40;36.40;;;28.82;29.88;101402.19;5095784;28;20212;-60
2022/07/20 04:51:58;;;;;;;5.17;4.13;;;26.40;36.40;;;28.82;29.44;101413.00;5095173;28;20676;-56
2022/07/20 04:54:25;;;;;;;4.27;3.80;;;26.40;36.40;;;28.82;29.68;101404.06;5097452;28;20196;-59
2022/07/20 04:56:53;;;;;;;4.83;3.60;;;26.40;37.10;;;28.81;29.95;101413.31;5095569;28;20587;-59
2022/07/20 04:59:20;;;;;;;3.53;3.23;;;26.40;37.00;;;28.78;30.06;101411.16;5095283;28;20203;-57
2022/07/20 05:01:49;;;;;;;4.90;4.33;;;26.30;37.00;;;28.77;30.21;101406.78;5094661;28;20299;-59
2022/07/20 05:04:16;;;;;;;4.53;4.13;;;26.30;37.10;;;28.75;30.15;101403.56;5095022;28;20272;-57
2022/07/20 05:06:45;;;;;;;4.13;3.60;;;26.30;37.20;;;28.77;30.04;101406.78;5095036;28;20184;-60
2022/07/20 05:09:12;;;;;;;5.53;3.93;;;26.30;37.30;;;28.77;30.38;101404.09;5095016;28;20657;-56
2022/07/20 05:11:40;;;;;;;6.90;3.90;;;26.30;37.30;;;28.73;30.24;101397.63;5095861;28;20240;-57
2022/07/20 05:14:10;;;;;;;5.93;3.97;;;26.30;37.30;;;28.72;30.34;101402.22;5095825;28;20680;-58
2022/07/20 05:16:39;;;;;;;6.67;3.70;;;26.30;37.30;;;28.73;30.50;101397.63;5094916;28;20226;-58
2022/07/20 05:19:07;;;;;;;6.53;3.90;;;26.30;37.40;;;28.75;30.45;101395.44;5094804;28;20189;-57
2022/07/20 05:21:40;;;;;;;6.87;3.73;;;26.30;37.40;;;28.78;30.65;101386.75;5095053;28;20581;-56
2022/07/20 05:24:09;;;;;;;4.73;3.90;;;26.40;37.70;;;28.81;30.46;101389.69;5095056;28;20188;-58
2022/07/20 05:26:36;;;;;;;6.83;4.23;;;26.40;37.70;;;28.87;30.38;101392.38;5096205;28;20633;-59
2022/07/20 05:29:04;;;;;;;6.53;3.73;;;26.40;37.60;;;28.89;30.47;101396.44;5094804;28;20246;-58
2022/07/20 05:31:33;;;;;;;5.50;3.60;;;26.40;37.70;;;28.93;30.51;101396.69;5094616;28;20297;-60
2022/07/20 05:34:00;;;;;;;6.07;3.30;;;26.50;37.70;;;28.94;30.32;101396.41;5094912;28;20192;-59
2022/07/20 05:36:28;;;;;;;5.00;3.70;;;26.50;37.90;;;28.98;30.38;101394.75;5094489;28;20298;-59
2022/07/20 05:38:55;;;;;;;5.40;3.90;;;26.50;37.70;;;29.05;30.23;101389.03;5094499;28;20275;-59
2022/07/20 05:41:24;;;;;;;6.23;3.97;;;26.50;37.60;;;29.10;30.65;101397.94;5093641;28;20234;-57
2022/07/20 05:43:52;;;;;;;4.43;3.23;;;26.60;37.80;;;29.16;30.28;101391.41;5095420;28;20192;-57
2022/07/20 05:46:19;;;;;;;3.70;3.40;;;26.60;37.70;;;29.18;30.48;101397.38;5095360;28;20184;-58
2022/07/20 05:48:46;;;;;;;4.67;3.67;;;26.70;37.60;;;29.22;30.15;101394.88;5097218;28;20196;-56
2022/07/20 05:51:14;;;;;;;4.50;3.70;;;26.70;38.10;;;29.27;30.41;101401.09;5093501;28;20222;-59
2022/07/20 05:53:57;;;;;;;3.97;3.57;;;26.70;37.60;;;29.27;30.17;101401.09;5094268;28;20192;-57
2022/07/20 05:56:25;;;;;;;5.80;3.83;;;26.80;37.30;;;29.31;30.17;101394.00;5094271;28;20219;-57
2022/07/20 05:58:53;;;;;;;5.30;3.40;;;26.90;37.50;;;29.31;30.13;101399.44;5095108;28;20213;-58
2022/07/20 06:01:21;;;;;;;10.00;4.00;;;26.90;37.40;;;29.37;30.29;101402.94;5073289;28;20231;-56
2022/07/20 06:03:48;;;;;;;5.30;3.80;;;26.90;37.40;;;29.41;30.06;101415.66;5073675;28;20200;-58
2022/07/20 06:06:16;;;;;;;6.33;3.90;;;26.90;37.20;;;29.45;29.78;101400.41;5073707;28;20324;-58
2022/07/20 06:08:43;;;;;;;4.97;3.70;;;27.00;37.30;;;29.47;29.86;101403.66;5073957;28;20185;-57
2022/07/20 06:11:33;;;;;;;5.93;3.50;;;27.00;37.20;;;29.50;30.05;101408.50;5072709;28;20515;-59
2022/07/20 06:14:00;;;;;;;4.20;3.53;;;27.10;37.30;;;29.61;29.95;101411.16;5073532;28;20200;-57
2022/07/20 06:16:28;;;;;;;4.37;3.87;;;27.10;37.50;;;29.64;30.13;101413.31;5085277;28;20215;-58
2022/07/20 06:18:56;;;;;;;4.17;3.60;;;27.10;38.10;;;29.71;30.18;101413.78;5093580;28;20196;-59
2022/07/20 06:21:23;;;;;;;6.00;3.60;;;27.20;37.50;;;29.79;30.24;101416.72;5093372;28;20215;-59
2022/07/20 06:23:50;;;;;;;6.90;4.67;;;27.30;37.60;;;29.86;29.82;101416.38;5093504;28;20204;-59
2022/07/20 06:26:18;;;;;;;7.77;3.67;;;27.30;37.50;;;29.94;29.95;101407.59;5093691;28;20194;-59
2022/07/20 06:28:46;;;;;;;4.60;4.03;;;27.40;37.50;;;30.02;30.01;101412.44;5092912;28;20244;-58
2022/07/20 06:31:14;;;;;;;4.20;3.43;;;27.50;37.40;;;30.12;29.80;101409.56;5092512;28;20209;-58
2022/07/20 06:33:42;;;;;;;4.87;3.63;;;27.50;37.40;;;30.24;29.86;101418.16;5094753;28;20201;-59
2022/07/20 06:36:09;;;;;;;5.13;4.00;;;27.60;37.30;;;30.31;29.51;101418.59;5093779;28;20538;-56
2022/07/20 06:38:37;;;;;;;4.10;3.70;;;27.70;37.10;;;30.38;29.09;101419.09;5093438;28;20195;-57
2022/07/20 06:41:05;;;;;;;4.80;3.97;;;27.80;37.00;;;30.42;28.91;101419.34;5092274;28;20261;-58
2022/07/20 06:43:32;;;;;;;6.03;4.33;;;27.80;36.80;;;30.51;29.60;101412.97;5093010;28;20193;-58
2022/07/20 06:46:01;;;;;;;6.30;3.83;;;27.90;36.80;;;30.63;29.59;101421.53;5093194;28;20195;-57
2022/07/20 06:48:29;;;;;;;5.10;4.03;;;28.00;36.90;;;30.73;28.72;101410.53;5094344;28;20280;-58
2022/07/20 06:50:56;;;;;;;5.63;4.20;;;28.10;36.60;;;30.86;29.34;101413.63;5092626;28;20188;-56
2022/07/20 06:53:23;;;;;;;5.20;4.10;;;28.20;36.60;;;30.98;28.86;101411.28;5093126;28;20696;-58
2022/07/20 06:55:51;;;;;;;4.40;3.90;;;28.30;36.00;;;31.03;28.12;101416.66;5092591;28;20691;-59
2022/07/20 06:58:18;;;;;;;7.47;4.23;;;28.40;35.70;;;31.15;28.85;101411.56;5092976;28;20278;-58
2022/07/20 07:00:45;;;;;;;5.00;4.20;;;28.50;35.80;;;31.25;28.78;101406.00;5092324;28;20691;-57
2022/07/20 07:03:14;;;;;;;4.13;3.40;;;28.60;35.80;;;31.39;28.69;101418.56;5092646;28;20653;-59
2022/07/20 07:05:42;;;;;;;9.37;4.00;;;28.70;36.40;;;31.49;28.53;101417.63;5094279;28;20196;-58
2022/07/20 07:08:09;;;;;;;7.00;3.90;;;28.80;35.60;;;31.57;28.44;101419.63;5092869;28;20706;-58
2022/07/20 07:10:37;;;;;;;6.90;3.93;;;28.90;35.40;;;31.68;28.42;101415.66;5092637;28;20188;-59
2022/07/20 07:13:04;;;;;;;6.47;3.90;;;29.10;35.40;;;31.78;27.77;101410.03;5092537;28;20220;-59
2022/07/20 07:15:31;;;;;;;5.13;4.00;;;29.20;35.30;;;31.89;28.03;101413.38;5092706;28;20246;-59
2022/07/20 07:17:59;;;;;;;6.80;3.90;;;29.20;35.10;;;31.97;27.69;101410.78;5092579;28;20212;-59
2022/07/20 07:20:28;;;;;;;6.60;4.03;;;29.30;34.30;;;32.09;27.09;101416.56;5092576;28;20197;-58
2022/07/20 07:22:55;;;;;;;7.00;4.07;;;29.50;34.30;;;32.24;27.45;101411.91;5111724;28;20219;-58
2022/07/20 07:25:23;;;;;;;4.10;3.27;;;29.60;34.30;;;32.40;27.45;101415.97;5113159;28;20187;-56
2022/07/20 07:27:50;;;;;;;5.67;3.60;;;29.70;34.30;;;32.55;26.61;101412.94;5112560;28;20195;-57
2022/07/20 07:30:18;;;;;;;8.40;3.50;;;29.90;34.10;;;32.71;26.99;101417.78;5112941;28;20188;-61
2022/07/20 07:32:45;;;;;;;4.03;3.17;;;30.00;33.90;;;32.82;25.94;101418.38;5112456;28;20208;-59
2022/07/20 07:35:16;;;;;;;5.60;3.93;;;30.10;33.10;;;32.93;26.29;101421.66;5113028;28;20208;-60
2022/07/20 07:37:50;;;;;;;4.97;3.90;;;30.30;33.10;;;33.10;26.12;101411.75;5110450;28;20215;-58
2022/07/20 07:40:18;;;;;;;5.87;3.60;;;30.40;32.90;;;33.29;26.24;101411.56;5092740;28;20194;-58
2022/07/20 07:42:45;;;;;;;4.07;3.43;;;30.60;32.90;;;33.40;25.76;101419.19;5091892;28;20212;-58
2022/07/20 07:45:13;;;;;;;5.97;4.40;;;30.70;32.30;;;33.55;25.58;101418.06;5092805;28;20192;-58
2022/07/20 07:47:42;;;;;;;7.47;4.17;;;30.90;32.30;;;33.70;25.63;101416.84;5092272;28;20223;-59
2022/07/20 07:50:10;;;;;;;6.80;3.93;;;31.00;32.00;;;33.86;25.27;101409.88;5091919;28;20189;-58
2022/07/20 07:52:37;;;;;;;5.90;3.70;;;31.10;31.80;;;33.92;25.04;101419.56;5091983;28;20220;-58
2022/07/20 07:55:24;;;;;;;3.77;3.47;;;31.30;31.30;;;34.03;24.80;101409.97;5093529;28;20211;-57
2022/07/20 07:57:51;;;;;;;7.70;4.47;;;31.40;31.30;;;34.19;24.74;101411.16;5092059;28;20224;-58
2022/07/20 08:00:18;;;;;;;5.07;3.70;;;31.60;31.00;;;34.37;24.93;101418.34;5092176;28;20192;-58
2022/07/20 08:02:46;;;;;;;5.97;3.70;;;31.70;30.90;;;34.54;24.42;101412.91;5091376;28;20300;-57
2022/07/20 08:05:14;;;;;;;3.95;3.50;;;31.90;30.70;;;34.71;24.50;101415.69;5092475;28;20197;-60
2022/07/20 08:07:41;;;;;;;6.25;4.00;;;32.00;30.50;;;34.89;24.53;101418.44;5092317;28;20189;-59
2022/07/20 08:10:09;;;;;;;4.53;3.80;;;32.20;30.60;;;35.11;24.42;101412.88;5092248;28;20184;-60
2022/07/20 08:12:38;;;;;;;5.72;3.88;;;32.30;30.20;;;35.78;23.38;101394.72;5093317;28;20219;-59
2022/07/20 08:15:08;;;;;;;4.32;3.90;;;32.60;30.60;;;36.78;22.50;101400.34;5095351;28;20189;-59
2022/07/20 08:17:35;;;;;;;5.70;4.18;;;32.90;29.80;;;38.03;21.25;101390.78;5096000;28;20216;-60
2022/07/20 08:20:06;;;;;;;5.35;4.10;;;33.50;29.70;;;39.32;20.03;101397.91;5095965;28;20196;-58
2022/07/20 08:22:33;;;;;;;6.18;4.20;;;34.20;28.90;;;40.47;18.77;101398.50;5095858;28;20215;-58
2022/07/20 08:25:01;;;;;;;5.10;4.13;;;35.00;27.90;;;41.52;18.20;101402.69;5095858;28;20199;-58
2022/07/20 08:27:28;;;;;;;6.22;3.83;;;35.70;26.80;;;42.21;16.48;101398.75;5096781;28;20692;-57
2022/07/20 08:30:01;;;;;;;6.93;3.70;;;36.50;25.30;;;43.01;16.47;101403.03;5095017;27;20238;-58
2022/07/20 08:32:28;;;;;;;4.70;3.50;;;37.30;24.60;;;43.37;15.51;101402.28;5095378;28;20212;-58
2022/07/20 08:34:56;;;;;;;4.88;3.40;;;37.90;23.40;;;43.98;15.05;101398.09;5095984;28;20358;-58
2022/07/20 08:37:23;;;;;;;4.88;3.53;;;38.60;23.10;;;44.74;15.24;101399.78;5095930;28;20220;-59
2022/07/20 08:39:51;;;;;;;5.50;3.70;;;39.20;22.70;;;45.56;14.28;101406.41;5095725;28;20196;-57
2022/07/20 08:42:18;;;;;;;3.65;3.35;;;39.70;22.30;;;46.08;13.87;101402.88;5095103;28;20681;-59
2022/07/20 08:44:46;;;;;;;4.10;3.58;;;40.30;21.10;;;46.51;13.40;101400.00;5096518;28;20196;-57
2022/07/20 08:47:16;;;;;;;4.07;3.78;;;40.80;20.50;;;46.92;13.04;101398.25;5096151;28;20180;-57
2022/07/20 08:49:47;;;;;;;7.03;4.10;;;41.30;20.40;;;47.44;12.63;101397.19;5095697;28;20238;-58
2022/07/20 08:52:15;;;;;;;4.40;4.00;;;41.70;19.80;;;47.26;12.40;101390.94;5102110;28;20510;-58
2022/07/20 08:54:43;;;;;;;4.32;3.35;;;41.80;19.10;;;47.22;12.75;101395.72;5115264;28;20528;-57
2022/07/20 08:57:12;;;;;;;6.47;3.92;;;42.10;19.20;;;47.53;12.13;101394.72;5115389;27;20235;-58
2022/07/20 08:59:39;;;;;;;15.60;3.70;;;42.30;18.80;;;47.58;11.54;101396.28;5114145;28;20189;-61
2022/07/20 09:02:09;;;;;;;4.30;3.90;;;42.40;18.30;;;47.64;11.61;101388.25;5086225;28;20211;-58
2022/07/20 09:04:53;;;;;;;4.80;3.40;;;42.50;18.20;;;47.62;11.73;101390.69;5115335;28;20275;-59
2022/07/20 09:07:39;;;;;;;6.40;4.07;;;42.70;18.10;;;47.45;11.95;101398.75;5115510;28;20184;-61
2022/07/20 09:10:11;;;;;;;5.78;3.63;;;42.70;18.20;;;48.14;11.95;101392.22;5112949;28;20199;-60
2022/07/20 09:12:58;;;;;;;3.42;3.13;;;42.90;18.60;;;48.68;10.89;101390.41;5095035;28;20235;-58
2022/07/20 09:15:35;;;;;;;4.25;3.85;;;43.20;17.50;;;48.81;10.69;101395.03;5095563;28;20584;-59
2022/07/20 09:18:15;;;;;;;7.00;3.80;;;43.40;17.20;;;49.01;10.46;101392.38;5096493;28;20281;-58
2022/07/20 09:20:47;;;;;;;5.20;3.58;;;43.60;17.00;;;48.96;10.76;101389.25;5101493;28;20279;-58
2022/07/20 09:23:19;;;;;;;6.32;3.65;;;43.60;16.70;;;49.00;10.82;101387.22;5115479;28;20188;-58
2022/07/20 09:26:00;;;;;;;5.15;3.55;;;43.80;17.00;;;49.37;10.78;101384.28;5114740;28;20200;-58
2022/07/20 09:28:37;;;;;;;4.93;3.58;;;44.00;16.80;;;49.69;10.37;101392.19;5115214;28;20191;-58
2022/07/20 09:31:11;;;;;;;3.78;3.47;;;44.10;16.60;;;49.59;10.10;101388.34;5105447;28;20542;-58
2022/07/20 09:36:37;;;;;;;3.97;3.58;;;44.20;15.50;;;49.48;9.38;101379.28;5094532;28;20246;-60
2022/07/20 09:39:09;;;;;;;6.85;3.70;;;44.30;15.60;;;49.54;10.26;101369.22;5094226;28;20227;-58
2022/07/20 09:41:42;;;;;;;3.88;3.47;;;44.40;15.70;;;49.72;9.60;101369.69;5107666;28;20239;-58
2022/07/20 09:44:20;;;;;;;5.15;3.70;;;44.40;15.30;;;49.77;9.28;101360.78;5115259;28;20286;-58
2022/07/20 09:46:48;;;;;;;3.78;3.17;;;44.50;15.70;;;50.16;9.24;101372.06;5114521;28;20252;-58
2022/07/20 09:49:15;;;;;;;4.25;3.75;;;44.70;15.50;;;49.82;9.08;101368.72;5112084;28;20721;-57
2022/07/20 09:51:49;;;;;;;3.70;3.40;;;44.50;15.10;;;49.87;9.47;101371.06;5107941;28;20223;-59
2022/07/20 09:54:18;;;;;;;4.13;3.65;;;44.60;15.20;;;49.86;9.45;101363.81;5114644;28;20237;-61
2022/07/20 09:56:48;;;;;;;3.63;3.25;;;44.60;14.80;;;50.04;8.59;101372.72;5114263;28;20248;-61
2022/07/20 09:59:18;;;;;;;4.60;3.42;;;44.70;14.80;;;50.12;8.82;101373.38;5113389;28;20755;-58
2022/07/20 10:01:50;;;;;;;7.38;4.10;;;44.70;14.50;;;49.91;9.34;101371.78;5099283;28;20228;-57
2022/07/20 10:04:19;;;;;;;4.25;3.55;;;44.70;14.60;;;50.00;9.05;101374.78;5093929;28;20199;-59
2022/07/20 10:06:51;;;;;;;3.72;3.20;;;44.80;14.80;;;50.06;8.26;101370.28;5094681;28;20200;-59
2022/07/20 10:09:19;;;;;;;4.13;3.55;;;44.70;14.30;;;50.11;8.38;101369.78;5093085;28;20185;-58
2022/07/20 10:11:47;;;;;;;3.97;3.30;;;44.80;14.20;;;50.30;8.68;101365.44;5110127;28;20219;-58
2022/07/20 10:14:19;;;;;;;4.28;3.95;;;44.90;13.70;;;50.79;7.39;101366.41;5114049;28;20267;-58
2022/07/20 10:16:50;;;;;;;5.00;3.75;;;45.10;13.50;;;50.90;7.76;101363.41;5072977;28;20201;-61
2022/07/20 10:19:18;;;;;;;6.07;3.55;;;45.20;13.90;;;51.47;7.48;101362.84;5087644;28;20556;-57
2022/07/20 10:21:49;;;;;;;3.92;3.60;;;45.40;13.70;;;51.77;7.78;101365.25;5093074;27;20545;-60
2022/07/20 10:24:22;;;;;;;4.35;3.90;;;45.60;13.40;;;52.15;7.54;101366.25;5093698;28;20185;-59